Time;durP1;ratioP1;P1;durP2;ratioP2;P2;SDS_P1;SDS_P2;PMS_P1;PMS_P2;Temp;Humidity;BMP_temperature;BMP_pressure;BME280_temperature;BME280_humidity;BME280_pressure;Samples;Min_cycle;Max_cycle;Signal;HPM_P1;HPM_P2
2023/07/10 00:02:41;;;;;;;9.68;6.65;;;;;;;;;;6205710;28;20062;-88
2023/07/10 00:05:43;;;;;;;9.13;6.28;;;;;;;;;;6214749;28;20049;-87
2023/07/10 00:08:45;;;;;;;10.43;6.40;;;;;;;;;;6212763;28;20101;-87
2023/07/10 00:11:47;;;;;;;12.23;7.30;;;;;;;;;;6206019;28;20064;-87
2023/07/10 00:14:49;;;;;;;9.63;6.85;;;;;;;;;;6205962;28;20050;-87
2023/07/10 00:17:51;;;;;;;7.68;6.22;;;;;;;;;;6197977;28;20124;-87
2023/07/10 00:20:53;;;;;;;8.60;6.75;;;;;;;;;;6193918;28;20041;-88
2023/07/10 00:23:55;;;;;;;9.00;7.22;;;;;;;;;;6214956;28;20069;-87
2023/07/10 00:26:56;;;;;;;9.98;7.38;;;;;;;;;;6208858;28;20595;-87
2023/07/10 00:30:00;;;;;;;10.45;6.85;;;;;;;;;;6197418;28;20046;-88
2023/07/10 00:33:07;;;;;;;10.73;6.68;;;;;;;;;;6206660;28;20523;-87
2023/07/10 00:36:31;;;;;;;11.27;7.07;;;;;;;;;;6202183;28;20045;-87
2023/07/10 00:39:36;;;;;;;10.30;6.93;;;;;;;;;;6197442;28;20049;-88
2023/07/10 00:42:45;;;;;;;10.43;6.68;;;;;;;;;;6201719;28;20097;-86
2023/07/10 00:45:52;;;;;;;13.57;8.00;;;;;;;;;;6178798;28;20125;-87
2023/07/10 00:49:02;;;;;;;13.48;8.60;;;;;;;;;;6167821;28;20436;-87
2023/07/10 00:52:40;;;;;;;10.25;7.55;;;;;;;;;;6190426;28;20420;-87
2023/07/10 00:55:43;;;;;;;;;;;;;;;;;;6176762;28;20054;-86
2023/07/10 00:58:47;;;;;;;13.73;9.13;;;;;;;;;;6204632;28;20288;-87
2023/07/10 01:02:16;;;;;;;11.05;8.35;;;;;;;;;;6203786;28;20196;-86
2023/07/10 01:05:19;;;;;;;11.35;8.55;;;;;;;;;;6207098;28;20065;-87
2023/07/10 01:08:23;;;;;;;15.85;9.52;;;;;;;;;;6205663;28;20148;-86
2023/07/10 01:11:24;;;;;;;13.50;9.40;;;;;;;;;;6203741;28;20066;-86
2023/07/10 01:14:26;;;;;;;13.63;9.40;;;;;;;;;;6203568;28;20065;-86
2023/07/10 01:17:28;;;;;;;15.88;10.40;;;;;;;;;;6206791;28;20074;-85
2023/07/10 01:20:48;;;;;;;18.87;10.67;;;;;;;;;;6204006;28;20610;-87
2023/07/10 01:23:51;;;;;;;17.13;11.15;;;;;;;;;;6200250;28;20393;-87
2023/07/10 01:26:53;;;;;;;;;;;;;;;;;;6202237;28;20093;-86
2023/07/10 01:30:06;;;;;;;17.77;11.25;;;;;;;;;;6201055;28;20435;-87
2023/07/10 01:33:12;;;;;;;;;;;;;;;;;;6207219;28;20061;-87
2023/07/10 01:36:17;;;;;;;18.80;12.23;;;;;;;;;;6190936;28;19925;-87
2023/07/10 01:39:29;;;;;;;20.00;12.75;;;;;;;;;;6204361;28;20046;-87
2023/07/10 01:42:31;;;;;;;19.23;11.83;;;;;;;;;;6207785;28;20397;-87
2023/07/10 01:45:43;;;;;;;22.35;13.30;;;;;;;;;;6200352;28;20704;-87
2023/07/10 01:48:47;;;;;;;24.70;14.93;;;;;;;;;;6202865;28;20045;-87
2023/07/10 01:51:50;;;;;;;25.08;15.48;;;;;;;;;;6206047;28;20057;-86
2023/07/10 01:54:52;;;;;;;27.25;16.27;;;;;;;;;;6186446;28;20188;-85
2023/07/10 01:57:58;;;;;;;29.40;16.15;;;;;;;;;;6185989;28;20286;-87
2023/07/10 02:01:00;;;;;;;27.40;16.02;;;;;;;;;;6199718;28;20054;-88
2023/07/10 02:04:03;;;;;;;26.25;14.80;;;;;;;;;;6188216;28;20120;-86
2023/07/10 02:07:07;;;;;;;25.80;16.98;;;;;;;;;;6190689;28;20127;-85
2023/07/10 02:10:09;;;;;;;28.98;17.05;;;;;;;;;;6184207;28;20101;-87
2023/07/10 02:13:12;;;;;;;28.92;16.25;;;;;;;;;;6205840;28;20084;-88
2023/07/10 02:16:15;;;;;;;28.38;17.80;;;;;;;;;;6191498;28;20038;-86
2023/07/10 02:19:18;;;;;;;;;;;;;;;;;;6206942;28;20097;-87
2023/07/10 02:22:19;;;;;;;28.33;17.73;;;;;;;;;;6208083;28;19921;-87
2023/07/10 02:25:21;;;;;;;29.08;18.25;;;;;;;;;;6200911;28;20045;-87
2023/07/10 02:28:23;;;;;;;31.05;19.45;;;;;;;;;;6196952;28;20092;-87
2023/07/10 02:31:26;;;;;;;30.67;19.57;;;;;;;;;;6188479;28;20046;-87
2023/07/10 02:34:28;;;;;;;33.20;20.30;;;;;;;;;;6197306;28;20066;-86
2023/07/10 02:37:29;;;;;;;31.35;20.52;;;;;;;;;;6187932;28;20397;-87
2023/07/10 02:40:31;;;;;;;35.15;20.92;;;;;;;;;;6196003;28;20173;-88
2023/07/10 02:43:33;;;;;;;32.53;20.23;;;;;;;;;;6202882;28;20057;-87
2023/07/10 02:46:36;;;;;;;35.85;20.80;;;;;;;;;;6171440;28;20048;-86
2023/07/10 02:49:37;;;;;;;33.55;20.48;;;;;;;;;;6202800;28;20061;-87
2023/07/10 02:52:39;;;;;;;35.13;20.80;;;;;;;;;;6204656;28;20045;-86
2023/07/10 02:55:42;;;;;;;33.30;20.95;;;;;;;;;;6184858;28;20042;-87
2023/07/10 02:58:44;;;;;;;32.33;21.00;;;;;;;;;;6186617;28;20053;-86
2023/07/10 03:01:46;;;;;;;34.22;20.08;;;;;;;;;;6226742;28;20105;-87
2023/07/10 03:04:48;;;;;;;33.75;20.75;;;;;;;;;;6215064;28;20043;-87
2023/07/10 03:07:50;;;;;;;34.22;21.08;;;;;;;;;;6206644;28;20123;-86
2023/07/10 03:11:03;;;;;;;35.25;21.52;;;;;;;;;;6190234;28;20061;-86
2023/07/10 03:14:05;;;;;;;33.38;19.55;;;;;;;;;;6196203;28;20046;-86
2023/07/10 03:17:07;;;;;;;34.13;20.00;;;;;;;;;;6178527;28;20046;-87
2023/07/10 03:20:11;;;;;;;34.92;21.02;;;;;;;;;;6151854;28;20046;-87
2023/07/10 03:23:12;;;;;;;39.38;22.15;;;;;;;;;;6203036;28;20045;-87
2023/07/10 03:26:14;;;;;;;37.00;20.95;;;;;;;;;;6192583;28;20129;-86
2023/07/10 03:29:19;;;;;;;35.35;20.92;;;;;;;;;;6192486;28;20091;-87
2023/07/10 03:32:23;;;;;;;36.22;21.17;;;;;;;;;;6188676;28;20065;-87
2023/07/10 03:35:59;;;;;;;35.63;22.40;;;;;;;;;;6202282;28;20046;-85
2023/07/10 03:39:02;;;;;;;37.88;22.13;;;;;;;;;;6201618;28;20038;-87
2023/07/10 03:42:03;;;;;;;36.50;21.08;;;;;;;;;;6202615;28;20052;-88
2023/07/10 03:45:05;;;;;;;36.67;22.80;;;;;;;;;;6203026;28;20066;-89
2023/07/10 03:48:07;;;;;;;38.33;22.15;;;;;;;;;;6200836;28;20056;-88
2023/07/10 03:51:09;;;;;;;41.75;22.52;;;;;;;;;;6204580;28;20045;-88
2023/07/10 03:54:11;;;;;;;35.33;21.75;;;;;;;;;;6191607;28;20129;-87
2023/07/10 03:57:15;;;;;;;36.35;21.63;;;;;;;;;;6199624;28;20398;-88
2023/07/10 04:00:17;;;;;;;39.83;22.52;;;;;;;;;;6195005;28;20132;-87
2023/07/10 04:03:22;;;;;;;33.83;21.15;;;;;;;;;;6190813;28;20050;-89
2023/07/10 04:06:24;;;;;;;35.33;21.02;;;;;;;;;;6208198;28;20069;-88
2023/07/10 04:09:31;;;;;;;36.15;21.55;;;;;;;;;;6167496;28;20101;-88
2023/07/10 04:12:39;;;;;;;35.33;20.48;;;;;;;;;;6189430;28;20054;-88
2023/07/10 04:15:41;;;;;;;34.15;20.48;;;;;;;;;;6188677;28;20050;-87
2023/07/10 04:18:53;;;;;;;31.08;18.50;;;;;;;;;;6212380;28;20046;-87
2023/07/10 04:21:55;;;;;;;32.70;19.85;;;;;;;;;;6207490;28;20042;-87
2023/07/10 04:25:04;;;;;;;31.52;18.40;;;;;;;;;;6204800;28;20037;-88
2023/07/10 04:28:06;;;;;;;32.38;18.70;;;;;;;;;;6163767;28;20504;-87
2023/07/10 04:31:16;;;;;;;26.63;17.20;;;;;;;;;;6152004;28;20519;-87
2023/07/10 04:34:18;;;;;;;32.92;17.60;;;;;;;;;;6207585;28;20049;-88
2023/07/10 04:37:20;;;;;;;28.92;17.33;;;;;;;;;;6204958;28;20132;-87
2023/07/10 04:40:30;;;;;;;26.13;16.40;;;;;;;;;;6188649;28;20046;-86
2023/07/10 04:43:41;;;;;;;28.55;17.55;;;;;;;;;;6172519;28;20132;-88
2023/07/10 04:46:49;;;;;;;27.58;17.48;;;;;;;;;;6181139;28;20096;-87
2023/07/10 04:49:50;;;;;;;30.20;17.27;;;;;;;;;;6198934;28;20034;-88
2023/07/10 04:52:52;;;;;;;32.38;19.13;;;;;;;;;;6210807;28;20054;-86
2023/07/10 04:55:54;;;;;;;26.95;18.05;;;;;;;;;;6206786;28;20125;-87
2023/07/10 04:58:58;;;;;;;28.60;17.90;;;;;;;;;;6208696;28;20050;-87
2023/07/10 05:02:03;;;;;;;27.75;17.77;;;;;;;;;;6196745;28;20123;-88
2023/07/10 05:05:05;;;;;;;28.58;17.40;;;;;;;;;;6209464;28;20056;-87
2023/07/10 05:08:07;;;;;;;31.55;19.42;;;;;;;;;;6218385;28;20058;-87
2023/07/10 05:11:09;;;;;;;26.75;17.58;;;;;;;;;;6230929;28;20069;-87
2023/07/10 05:14:10;;;;;;;31.73;19.17;;;;;;;;;;6203902;28;20504;-88
2023/07/10 05:17:12;;;;;;;33.40;18.75;;;;;;;;;;6206818;28;20080;-88
2023/07/10 05:20:14;;;;;;;32.38;19.00;;;;;;;;;;6214781;28;20042;-88
2023/07/10 05:23:16;;;;;;;28.67;17.07;;;;;;;;;;6206124;28;20037;-88
2023/07/10 05:26:19;;;;;;;28.08;18.15;;;;;;;;;;6206899;28;20128;-87
2023/07/10 05:29:21;;;;;;;31.27;18.15;;;;;;;;;;6190956;28;20501;-87
2023/07/10 05:32:23;;;;;;;29.27;17.85;;;;;;;;;;6203542;28;20145;-88
2023/07/10 05:35:25;;;;;;;29.90;18.55;;;;;;;;;;6204908;28;20069;-87
2023/07/10 05:38:29;;;;;;;29.00;18.60;;;;;;;;;;6202346;28;20097;-89
2023/07/10 05:41:30;;;;;;;28.92;17.52;;;;;;;;;;6204125;28;20054;-87
2023/07/10 05:44:36;;;;;;;28.47;17.67;;;;;;;;;;6217072;28;20045;-88
2023/07/10 05:47:38;;;;;;;29.83;17.80;;;;;;;;;;6213360;28;20073;-87
2023/07/10 05:50:42;;;;;;;29.07;18.57;;;;;;;;;;6214167;28;20041;-86
2023/07/10 05:53:44;;;;;;;28.13;17.95;;;;;;;;;;6210742;28;20096;-84
2023/07/10 05:56:47;;;;;;;28.13;17.65;;;;;;;;;;6198288;28;20061;-87
2023/07/10 05:59:48;;;;;;;26.10;18.33;;;;;;;;;;6208921;28;20076;-86
2023/07/10 06:02:50;;;;;;;27.48;17.30;;;;;;;;;;6214661;28;20050;-89
2023/07/10 06:05:56;;;;;;;27.67;17.98;;;;;;;;;;6212409;28;20057;-88
2023/07/10 06:08:58;;;;;;;29.88;18.63;;;;;;;;;;6214725;28;20076;-87
2023/07/10 06:12:00;;;;;;;26.63;17.73;;;;;;;;;;6205511;28;20129;-87
2023/07/10 06:15:02;;;;;;;28.90;18.48;;;;;;;;;;6204229;28;20049;-88
2023/07/10 06:18:07;;;;;;;33.40;20.27;;;;;;;;;;6189411;28;20513;-89
2023/07/10 06:21:10;;;;;;;29.93;19.53;;;;;;;;;;6205075;28;20069;-88
2023/07/10 06:24:11;;;;;;;29.00;19.05;;;;;;;;;;6204307;28;20568;-86
2023/07/10 06:27:13;;;;;;;30.08;18.70;;;;;;;;;;6201862;28;20556;-88
2023/07/10 06:30:16;;;;;;;29.52;18.50;;;;;;;;;;6204107;28;20080;-87
2023/07/10 06:33:17;;;;;;;30.17;18.42;;;;;;;;;;6206101;28;20053;-89
2023/07/10 06:36:19;;;;;;;30.80;18.55;;;;;;;;;;6203935;28;20513;-88
2023/07/10 06:39:20;;;;;;;31.92;18.17;;;;;;;;;;6205199;28;20050;-88
2023/07/10 06:42:22;;;;;;;33.45;19.67;;;;;;;;;;6203768;28;20101;-88
2023/07/10 06:45:24;;;;;;;29.48;18.42;;;;;;;;;;6205100;28;20100;-88
2023/07/10 06:48:25;;;;;;;29.50;17.90;;;;;;;;;;6207643;28;20092;-87
2023/07/10 06:51:29;;;;;;;30.60;18.90;;;;;;;;;;6208738;28;20047;-88
2023/07/10 06:54:30;;;;;;;28.88;17.73;;;;;;;;;;6205837;28;20125;-88
2023/07/10 06:57:32;;;;;;;31.98;18.27;;;;;;;;;;6208908;28;20053;-87
2023/07/10 07:00:34;;;;;;;30.55;18.48;;;;;;;;;;6211581;28;20053;-87
2023/07/10 07:03:36;;;;;;;30.83;18.40;;;;;;;;;;6205366;28;20507;-88
2023/07/10 07:06:37;;;;;;;32.03;19.05;;;;;;;;;;6201898;28;20042;-88
2023/07/10 07:09:39;;;;;;;28.95;18.83;;;;;;;;;;6203902;28;20200;-88
2023/07/10 07:12:42;;;;;;;26.73;18.40;;;;;;;;;;6213282;28;20099;-87
2023/07/10 07:15:48;;;;;;;30.92;19.00;;;;;;;;;;6210014;28;20463;-88
2023/07/10 07:18:51;;;;;;;30.95;19.48;;;;;;;;;;6198606;28;20177;-87
2023/07/10 07:22:12;;;;;;;31.25;19.25;;;;;;;;;;6204629;28;20053;-87
2023/07/10 07:25:14;;;;;;;33.97;20.42;;;;;;;;;;6198403;28;20500;-86
2023/07/10 07:28:15;;;;;;;32.83;20.20;;;;;;;;;;6201934;28;20116;-86
2023/07/10 07:31:17;;;;;;;30.15;20.02;;;;;;;;;;6200871;28;20093;-86
2023/07/10 07:34:19;;;;;;;39.42;21.40;;;;;;;;;;6202142;28;20512;-86
2023/07/10 07:37:20;;;;;;;35.78;20.70;;;;;;;;;;6200400;28;20050;-87
2023/07/10 07:40:22;;;;;;;34.25;20.40;;;;;;;;;;6202065;28;20632;-87
2023/07/10 07:43:24;;;;;;;33.55;20.05;;;;;;;;;;6182336;28;20449;-86
2023/07/10 07:46:26;;;;;;;33.95;20.58;;;;;;;;;;6201384;28;20746;-87
2023/07/10 07:49:27;;;;;;;29.35;18.85;;;;;;;;;;6198428;28;20050;-88
2023/07/10 07:52:29;;;;;;;33.53;19.43;;;;;;;;;;6205694;28;20515;-86
2023/07/10 07:55:31;;;;;;;30.77;19.15;;;;;;;;;;6203512;28;20041;-87
2023/07/10 07:58:32;;;;;;;26.23;17.63;;;;;;;;;;6201061;28;20133;-87
2023/07/10 08:01:34;;;;;;;29.03;19.17;;;;;;;;;;6196629;28;20049;-85
2023/07/10 08:04:36;;;;;;;26.20;16.83;;;;;;;;;;6193453;28;20236;-86
2023/07/10 08:07:38;;;;;;;28.33;17.75;;;;;;;;;;6206640;28;20050;-87
2023/07/10 08:10:42;;;;;;;26.45;17.52;;;;;;;;;;6183510;28;20054;-87
2023/07/10 08:13:43;;;;;;;28.75;18.60;;;;;;;;;;6206178;28;20046;-86
2023/07/10 08:16:45;;;;;;;26.42;18.38;;;;;;;;;;6177072;28;20188;-86
2023/07/10 08:19:48;;;;;;;27.90;17.52;;;;;;;;;;6209763;28;20136;-87
2023/07/10 08:22:50;;;;;;;24.20;16.58;;;;;;;;;;6210648;28;20100;-88
2023/07/10 08:25:51;;;;;;;23.23;16.20;;;;;;;;;;6209939;28;20125;-87
2023/07/10 08:28:53;;;;;;;21.00;15.45;;;;;;;;;;6212007;28;20137;-85
2023/07/10 08:31:56;;;;;;;23.73;15.93;;;;;;;;;;6190531;28;20053;-87
2023/07/10 08:34:57;;;;;;;21.02;14.82;;;;;;;;;;6208036;28;20092;-87
2023/07/10 08:37:59;;;;;;;19.63;13.02;;;;;;;;;;6211267;28;20124;-86
2023/07/10 08:41:14;;;;;;;16.58;11.88;;;;;;;;;;6207304;28;20120;-86
2023/07/10 08:44:15;;;;;;;14.20;11.40;;;;;;;;;;6208604;28;20058;-86
2023/07/10 08:47:23;;;;;;;16.95;10.63;;;;;;;;;;6271895;23;20052;-77
2023/07/10 08:50:30;;;;;;;16.20;11.18;;;;;;;;;;6259137;28;20077;-78
2023/07/10 08:53:36;;;;;;;13.73;10.40;;;;;;;;;;6240838;28;20048;-78
2023/07/10 08:57:08;;;;;;;14.32;10.77;;;;;;;;;;6258774;28;20049;-79
2023/07/10 09:00:13;;;;;;;14.38;10.02;;;;;;;;;;6262969;28;20041;-78
2023/07/10 09:03:27;;;;;;;14.00;10.90;;;;;;;;;;6255416;28;20049;-78
2023/07/10 09:06:47;;;;;;;12.90;9.60;;;;;;;;;;6259236;28;20041;-78
2023/07/10 09:09:56;;;;;;;12.05;8.68;;;;;;;;;;6262106;28;20120;-79
2023/07/10 09:13:02;;;;;;;14.90;8.38;;;;;;;;;;6242182;28;20041;-78
2023/07/10 09:16:14;;;;;;;13.05;8.32;;;;;;;;;;6240370;28;20045;-78
2023/07/10 09:19:19;;;;;;;12.43;7.72;;;;;;;;;;6260252;28;20049;-78
2023/07/10 09:22:21;;;;;;;10.38;7.13;;;;;;;;;;6251463;28;20046;-79
2023/07/10 09:25:24;;;;;;;11.63;7.43;;;;;;;;;;6255404;28;20049;-78
2023/07/10 09:28:26;;;;;;;10.10;7.18;;;;;;;;;;6255786;28;21125;-78
2023/07/10 09:32:02;;;;;;;10.32;7.60;;;;;;;;;;6254382;28;20045;-79
2023/07/10 09:35:04;;;;;;;11.52;7.63;;;;;;;;;;6273796;28;20079;-78
2023/07/10 09:38:13;;;;;;;8.82;7.25;;;;;;;;;;6254065;28;20045;-78
2023/07/10 09:41:27;;;;;;;8.45;7.40;;;;;;;;;;6256941;28;20040;-79
2023/07/10 09:44:39;;;;;;;9.73;7.05;;;;;;;;;;6253399;28;20092;-78
2023/07/10 09:47:46;;;;;;;11.38;7.18;;;;;;;;;;6278460;28;20052;-79
2023/07/10 09:50:51;;;;;;;12.15;6.93;;;;;;;;;;6267446;28;20068;-78
2023/07/10 09:54:02;;;;;;;8.95;7.30;;;;;;;;;;6264145;28;20052;-80
2023/07/10 09:57:15;;;;;;;7.05;6.30;;;;;;;;;;6282868;28;20052;-79
2023/07/10 10:00:18;;;;;;;8.25;7.25;;;;;;;;;;6304935;28;20494;-79
2023/07/10 10:03:25;;;;;;;9.10;6.53;;;;;;;;;;6276233;28;20429;-80
2023/07/10 10:06:30;;;;;;;7.45;6.60;;;;;;;;;;6306558;28;20047;-80
2023/07/10 10:09:33;;;;;;;9.70;6.80;;;;;;;;;;6307784;28;20079;-80
2023/07/10 10:12:36;;;;;;;7.75;6.30;;;;;;;;;;6281550;28;20036;-79
2023/07/10 10:15:54;;;;;;;9.52;6.68;;;;;;;;;;6302041;28;20039;-79
2023/07/10 10:19:01;;;;;;;7.45;6.70;;;;;;;;;;6306068;28;20055;-79
2023/07/10 10:22:14;;;;;;;6.88;6.18;;;;;;;;;;6307247;28;20036;-78
2023/07/10 10:25:17;;;;;;;7.43;6.07;;;;;;;;;;6305257;28;20043;-78
2023/07/10 10:28:52;;;;;;;8.95;6.50;;;;;;;;;;6287279;28;20048;-78
2023/07/10 10:32:09;;;;;;;6.97;5.97;;;;;;;;;;6273597;28;20051;-79
2023/07/10 10:35:23;;;;;;;7.72;6.15;;;;;;;;;;6286165;28;20048;-79
2023/07/10 10:38:50;;;;;;;7.72;6.30;;;;;;;;;;6285934;28;20040;-78
2023/07/10 10:42:04;;;;;;;7.75;5.47;;;;;;;;;;6304675;28;20047;-80
2023/07/10 10:45:25;;;;;;;6.63;5.50;;;;;;;;;;6294204;28;20095;-80
2023/07/10 10:48:48;;;;;;;7.88;5.22;;;;;;;;;;6313040;28;20067;-82
2023/07/10 10:51:55;;;;;;;6.75;4.72;;;;;;;;;;6310474;28;20043;-83
2023/07/10 10:55:18;;;;;;;5.90;4.47;;;;;;;;;;6272275;28;20047;-81
2023/07/10 10:58:41;;;;;;;7.22;5.32;;;;;;;;;;6283569;28;20127;-82
2023/07/10 11:01:59;;;;;;;7.18;4.85;;;;;;;;;;6301580;28;20062;-80
2023/07/10 11:05:27;;;;;;;7.35;5.00;;;;;;;;;;6304511;28;20113;-81
2023/07/10 11:08:44;;;;;;;5.78;5.10;;;;;;;;;;6305661;28;20044;-81
2023/07/10 11:11:46;;;;;;;8.25;5.50;;;;;;;;;;6305404;28;20052;-81
2023/07/10 11:14:52;;;;;;;6.18;5.20;;;;;;;;;;6305001;28;20041;-81
2023/07/10 11:17:56;;;;;;;6.65;5.05;;;;;;;;;;6295682;28;20048;-80
2023/07/10 11:21:01;;;;;;;7.75;5.40;;;;;;;;;;6273457;28;20570;-80
2023/07/10 11:24:27;;;;;;;7.13;5.60;;;;;;;;;;6298573;28;20039;-80
2023/07/10 11:27:41;;;;;;;6.97;5.30;;;;;;;;;;6307840;28;20029;-83
2023/07/10 11:30:44;;;;;;;6.63;5.22;;;;;;;;;;6307989;28;20795;-80
2023/07/10 11:33:52;;;;;;;6.03;5.43;;;;;;;;;;6295729;28;20044;-80
2023/07/10 11:36:55;;;;;;;8.10;5.82;;;;;;;;;;6311745;28;20502;-80
2023/07/10 11:39:57;;;;;;;6.70;5.68;;;;;;;;;;6313192;28;20438;-80
2023/07/10 11:43:27;;;;;;;5.68;5.18;;;;;;;;;;6291821;28;20055;-80
2023/07/10 11:46:31;;;;;;;5.90;5.32;;;;;;;;;;6306562;28;20040;-79
2023/07/10 11:49:51;;;;;;;6.85;5.50;;;;;;;;;;6312907;28;20036;-80
2023/07/10 11:53:19;;;;;;;8.32;5.63;;;;;;;;;;6307832;28;20502;-80
2023/07/10 11:56:25;;;;;;;6.45;5.43;;;;;;;;;;6304753;28;20044;-80
2023/07/10 11:59:26;;;;;;;6.43;5.38;;;;;;;;;;6293235;28;20048;-80
2023/07/10 12:02:38;;;;;;;6.68;5.78;;;;;;;;;;6292185;28;20100;-81
2023/07/10 12:05:40;;;;;;;5.90;5.28;;;;;;;;;;6293295;28;20505;-80
2023/07/10 12:08:44;;;;;;;6.20;5.60;;;;;;;;;;6293493;28;20056;-81
2023/07/10 12:11:46;;;;;;;6.32;5.28;;;;;;;;;;6311671;28;20230;-77
2023/07/10 12:14:48;;;;;;;5.45;4.47;;;;;;;;;;6286606;28;20051;-77
2023/07/10 12:17:53;;;;;;;5.57;4.80;;;;;;;;;;6291152;28;20047;-78
2023/07/10 12:20:58;;;;;;;5.72;4.93;;;;;;;;;;6307346;28;20127;-76
2023/07/10 12:24:03;;;;;;;8.15;5.28;;;;;;;;;;6305164;28;20630;-78
2023/07/10 12:27:05;;;;;;;5.32;4.78;;;;;;;;;;6309940;28;20189;-79
2023/07/10 12:30:27;;;;;;;7.13;5.28;;;;;;;;;;6309368;28;20047;-80
2023/07/10 12:33:37;;;;;;;6.18;4.85;;;;;;;;;;6307762;28;20547;-76
2023/07/10 12:36:39;;;;;;;5.05;4.55;;;;;;;;;;6307001;28;20227;-77
2023/07/10 12:39:42;;;;;;;;;;;;;;;;;;6311314;28;20177;-76
2023/07/10 12:42:45;;;;;;;;;;;;;;;;;;6293593;28;19931;-77
2023/07/10 12:45:55;;;;;;;6.93;4.40;;;;;;;;;;6306146;28;19950;-77
2023/07/10 12:49:17;;;;;;;4.80;4.13;;;;;;;;;;6305369;28;20543;-78
2023/07/10 12:52:23;;;;;;;6.22;3.90;;;;;;;;;;6267914;28;20086;-76
2023/07/10 12:55:30;;;;;;;4.03;3.65;;;;;;;;;;6285605;28;20054;-77
2023/07/10 12:58:32;;;;;;;6.55;4.43;;;;;;;;;;6269757;28;20043;-77
2023/07/10 13:01:33;;;;;;;6.38;3.70;;;;;;;;;;6305163;28;20095;-77
2023/07/10 13:04:39;;;;;;;4.30;3.90;;;;;;;;;;6289343;28;20044;-78
2023/07/10 13:07:41;;;;;;;4.25;3.65;;;;;;;;;;6306044;28;20048;-79
2023/07/10 13:10:45;;;;;;;4.75;3.67;;;;;;;;;;6307600;28;20117;-77
2023/07/10 13:13:48;;;;;;;6.63;3.92;;;;;;;;;;6297894;28;20096;-77
2023/07/10 13:16:58;;;;;;;5.65;4.18;;;;;;;;;;6305869;28;20055;-77
2023/07/10 13:20:03;;;;;;;4.25;3.58;;;;;;;;;;6272250;28;20036;-78
2023/07/10 13:23:10;;;;;;;4.85;3.35;;;;;;;;;;6275535;28;20112;-78
2023/07/10 13:26:24;;;;;;;4.80;3.70;;;;;;;;;;6283278;28;20523;-78
2023/07/10 13:29:26;;;;;;;4.30;3.40;;;;;;;;;;6308765;28;20048;-79
2023/07/10 13:32:29;;;;;;;4.65;3.30;;;;;;;;;;6287637;28;20044;-78
2023/07/10 13:35:33;;;;;;;4.43;3.63;;;;;;;;;;6307870;28;20112;-78
2023/07/10 13:38:35;;;;;;;4.47;3.53;;;;;;;;;;6300793;28;20126;-79
2023/07/10 13:41:37;;;;;;;4.72;3.33;;;;;;;;;;6282222;28;20052;-78
2023/07/10 13:44:41;;;;;;;4.25;3.65;;;;;;;;;;6298781;28;20095;-78
2023/07/10 13:47:43;;;;;;;4.68;3.50;;;;;;;;;;6298669;28;20112;-78
2023/07/10 13:50:47;;;;;;;4.05;3.38;;;;;;;;;;6283221;28;20128;-78
2023/07/10 13:53:48;;;;;;;3.70;3.40;;;;;;;;;;6298355;28;20147;-79
2023/07/10 13:56:50;;;;;;;;;;;;;;;;;;6298823;28;20508;-80
2023/07/10 13:59:53;;;;;;;3.20;2.90;;;;;;;;;;6282494;28;19924;-81
2023/07/10 14:02:55;;;;;;;4.00;3.50;;;;;;;;;;6299348;28;20036;-81
2023/07/10 14:05:57;;;;;;;3.97;3.58;;;;;;;;;;6310234;28;20052;-79
2023/07/10 14:09:04;;;;;;;3.90;3.50;;;;;;;;;;6305085;28;20135;-80
2023/07/10 14:12:12;;;;;;;3.80;3.50;;;;;;;;;;6279825;28;20036;-79
2023/07/10 14:15:16;;;;;;;5.95;3.28;;;;;;;;;;6288694;28;20094;-81
2023/07/10 14:18:23;;;;;;;3.70;3.05;;;;;;;;;;6282977;28;20099;-79
2023/07/10 14:21:25;;;;;;;2.97;2.67;;;;;;;;;;6282598;28;20139;-80
2023/07/10 14:24:26;;;;;;;;;;;;;;;;;;6304182;28;20138;-80
2023/07/10 14:27:29;;;;;;;3.33;3.03;;;;;;;;;;6303457;28;20279;-81
2023/07/10 14:30:31;;;;;;;4.55;3.17;;;;;;;;;;6269932;28;20043;-80
2023/07/10 14:33:32;;;;;;;4.07;3.00;;;;;;;;;;6305281;28;20093;-80
2023/07/10 14:36:35;;;;;;;3.22;2.75;;;;;;;;;;6285994;28;20082;-80
2023/07/10 14:39:37;;;;;;;4.80;2.70;;;;;;;;;;6287342;28;20056;-81
2023/07/10 14:42:38;;;;;;;3.95;2.70;;;;;;;;;;6279198;28;20059;-80
2023/07/10 14:45:45;;;;;;;2.92;2.55;;;;;;;;;;6287888;28;20044;-79
2023/07/10 14:48:47;;;;;;;3.95;2.60;;;;;;;;;;6301697;28;20060;-79
2023/07/10 14:51:49;;;;;;;5.50;2.80;;;;;;;;;;6303544;28;20572;-79
2023/07/10 14:54:53;;;;;;;3.00;2.47;;;;;;;;;;6279877;28;20048;-77
2023/07/10 14:57:54;;;;;;;3.88;2.83;;;;;;;;;;6298829;28;20044;-77
2023/07/10 15:00:57;;;;;;;2.97;2.58;;;;;;;;;;6281571;28;20178;-78
2023/07/10 15:03:59;;;;;;;3.15;2.47;;;;;;;;;;6297748;28;20043;-76
2023/07/10 15:07:00;;;;;;;3.70;2.72;;;;;;;;;;6277699;28;20048;-78
2023/07/10 15:10:21;;;;;;;3.40;2.30;;;;;;;;;;6277944;28;20086;-78
2023/07/10 15:13:30;;;;;;;4.35;2.50;;;;;;;;;;6279799;28;20047;-77
2023/07/10 15:16:32;;;;;;;3.00;2.75;;;;;;;;;;6297611;28;20124;-78
2023/07/10 15:19:34;;;;;;;;;;;;;;;;;;6301970;28;20410;-78
2023/07/10 15:22:35;;;;;;;3.33;2.67;;;;;;;;;;6300130;28;19985;-78
2023/07/10 15:25:37;;;;;;;3.13;2.50;;;;;;;;;;6281446;28;20523;-77
2023/07/10 15:28:39;;;;;;;3.78;2.80;;;;;;;;;;6302738;28;20060;-78
2023/07/10 15:31:40;;;;;;;4.70;2.58;;;;;;;;;;6298128;28;20087;-78
2023/07/10 15:34:48;;;;;;;3.25;2.42;;;;;;;;;;6300591;28;20040;-77
2023/07/10 15:37:50;;;;;;;4.10;2.28;;;;;;;;;;6297875;28;20248;-78
2023/07/10 15:40:55;;;;;;;4.10;2.30;;;;;;;;;;6266708;28;20053;-78
2023/07/10 15:43:57;;;;;;;3.30;2.10;;;;;;;;;;6289258;28;20559;-78
2023/07/10 15:46:59;;;;;;;2.65;2.10;;;;;;;;;;6294190;28;20067;-78
2023/07/10 15:50:00;;;;;;;2.78;2.20;;;;;;;;;;6295496;28;20182;-79
2023/07/10 15:53:02;;;;;;;3.17;1.85;;;;;;;;;;6301506;28;20045;-80
2023/07/10 15:56:04;;;;;;;2.47;1.83;;;;;;;;;;6287856;28;20521;-80
2023/07/10 15:59:14;;;;;;;2.53;2.00;;;;;;;;;;6287189;28;20048;-79
2023/07/10 16:02:25;;;;;;;2.17;2.00;;;;;;;;;;6297128;28;20129;-78
2023/07/10 16:05:30;;;;;;;3.35;2.15;;;;;;;;;;6274782;28;20097;-78
2023/07/10 16:08:38;;;;;;;2.42;2.08;;;;;;;;;;6294914;28;20048;-78
2023/07/10 16:11:41;;;;;;;2.55;2.10;;;;;;;;;;6300114;28;20052;-81
2023/07/10 16:14:42;;;;;;;2.40;1.80;;;;;;;;;;6300336;28;20087;-79
2023/07/10 16:17:46;;;;;;;4.45;2.00;;;;;;;;;;6283569;28;20871;-80
2023/07/10 16:20:48;;;;;;;2.97;2.45;;;;;;;;;;6282546;28;20094;-78
2023/07/10 16:23:51;;;;;;;4.15;2.17;;;;;;;;;;6301512;28;20062;-79
2023/07/10 16:26:53;;;;;;;2.20;1.90;;;;;;;;;;6301405;28;20056;-79
2023/07/10 16:29:54;;;;;;;3.80;2.08;;;;;;;;;;6301884;28;20048;-80
2023/07/10 16:32:57;;;;;;;2.85;1.80;;;;;;;;;;6287106;28;20835;-79
2023/07/10 16:35:59;;;;;;;2.38;1.60;;;;;;;;;;6302103;28;20492;-80
2023/07/10 16:39:01;;;;;;;2.45;1.83;;;;;;;;;;6283644;28;20044;-78
2023/07/10 16:42:03;;;;;;;3.25;1.85;;;;;;;;;;6284853;28;20044;-78
2023/07/10 16:45:05;;;;;;;1.73;1.63;;;;;;;;;;6303075;28;20395;-79
2023/07/10 16:48:07;;;;;;;;;;;;;;;;;;6287385;28;20063;-78
2023/07/10 16:51:23;;;;;;;3.13;1.92;;;;;;;;;;6286316;28;20028;-80
2023/07/10 16:54:25;;;;;;;5.32;2.25;;;;;;;;;;6288632;28;20173;-77
2023/07/10 16:57:26;;;;;;;3.20;1.85;;;;;;;;;;6309046;28;20517;-78
2023/07/10 17:00:28;;;;;;;3.85;1.95;;;;;;;;;;6307267;28;20040;-78
2023/07/10 17:03:32;;;;;;;2.58;1.63;;;;;;;;;;6289481;28;20098;-78
2023/07/10 17:06:35;;;;;;;1.95;1.80;;;;;;;;;;6310517;28;20480;-78
2023/07/10 17:09:37;;;;;;;3.30;1.70;;;;;;;;;;6288945;28;20091;-78
2023/07/10 17:12:41;;;;;;;2.53;2.00;;;;;;;;;;6311514;28;20051;-78
2023/07/10 17:15:47;;;;;;;3.13;2.20;;;;;;;;;;6306085;28;20052;-78
2023/07/10 17:18:49;;;;;;;2.22;1.75;;;;;;;;;;6284206;28;20047;-78
2023/07/10 17:21:50;;;;;;;2.28;1.73;;;;;;;;;;6307648;28;20040;-79
2023/07/10 17:24:57;;;;;;;2.97;1.77;;;;;;;;;;6301008;28;20048;-80
2023/07/10 17:27:59;;;;;;;3.33;1.85;;;;;;;;;;6280972;28;20044;-79
2023/07/10 17:31:30;;;;;;;3.40;2.05;;;;;;;;;;6283554;28;20040;-79
2023/07/10 17:34:32;;;;;;;3.45;1.80;;;;;;;;;;6278730;28;20055;-81
2023/07/10 17:37:34;;;;;;;2.20;1.70;;;;;;;;;;6290089;28;20067;-82
2023/07/10 17:40:36;;;;;;;2.13;1.75;;;;;;;;;;6293640;28;20043;-78
2023/07/10 17:43:37;;;;;;;3.58;1.80;;;;;;;;;;6274068;28;20428;-77
2023/07/10 17:46:39;;;;;;;2.53;1.65;;;;;;;;;;6289879;28;20044;-79
2023/07/10 17:49:41;;;;;;;3.45;1.98;;;;;;;;;;6310001;28;20067;-79
2023/07/10 17:52:46;;;;;;;2.20;1.58;;;;;;;;;;6310897;28;20113;-78
2023/07/10 17:55:50;;;;;;;2.85;1.70;;;;;;;;;;6311095;28;20067;-79
2023/07/10 17:58:56;;;;;;;2.35;1.90;;;;;;;;;;6288503;28;20040;-77
2023/07/10 18:01:59;;;;;;;2.38;1.77;;;;;;;;;;6309273;28;20036;-79
2023/07/10 18:05:01;;;;;;;3.03;1.92;;;;;;;;;;6306049;28;20044;-78
2023/07/10 18:08:15;;;;;;;2.40;1.70;;;;;;;;;;6284354;28;20031;-78
2023/07/10 18:11:22;;;;;;;2.95;2.13;;;;;;;;;;6307200;28;20056;-78
2023/07/10 18:14:24;;;;;;;1.88;1.60;;;;;;;;;;6278055;28;20129;-77
2023/07/10 18:17:25;;;;;;;2.28;1.80;;;;;;;;;;6300710;28;20048;-79
2023/07/10 18:20:27;;;;;;;2.80;1.83;;;;;;;;;;6303979;28;20181;-78